Terminal Aerodrome Forecast
Issued by NWS

Home | Current Version | Previous Version | Text Only | Print | Product List | Glossary Off
Versions: 1 2 3 4 5 6 7 8 9 10 11 12 13 14 15 16 17 18 19

000
FTUS43 KGRB 260431 AAA
TAFRHI
TAF AMD
KRHI 260431Z 2605/2624 28004KT P6SM VCSH SCT012 SCT040
      TEMPO 2605/2609 3SM BR BKN010
     FM260900 29006KT P6SM SCT007 BKN010
     FM261200 29008KT P6SM VCSH BKN015
     FM261500 32010KT P6SM VCSH BKN025
     FM262100 32008KT P6SM SCT030 BKN090=

USA.gov is the U.S. government's official web portal to all federal, state and local government web resources and services.